createdAt,value
2024-02-23T00:02:40.934Z,0.70
2024-02-23T00:06:28.740Z,0.77
2024-02-23T00:10:11.507Z,0.47
2024-02-23T00:13:53.844Z,0.53
2024-02-23T00:17:36.332Z,0.95
2024-02-23T00:21:18.571Z,0.70
2024-02-23T00:25:01.948Z,0.70
2024-02-23T00:28:44.534Z,1.00
2024-02-23T00:32:26.922Z,0.65
2024-02-23T00:36:09.322Z,0.77
2024-02-23T00:39:51.781Z,0.70
2024-02-23T00:43:42.952Z,0.80
2024-02-23T00:47:25.364Z,0.65
2024-02-23T00:51:08.764Z,0.70
2024-02-23T00:54:50.959Z,0.57
2024-02-23T00:58:33.031Z,0.93
2024-02-23T01:02:15.313Z,0.60
2024-02-23T01:05:57.508Z,0.45
2024-02-23T01:09:39.756Z,0.38
2024-02-23T01:13:21.994Z,0.40
2024-02-23T01:17:06.449Z,0.33
2024-02-23T01:20:48.682Z,0.45
2024-02-23T01:24:30.913Z,0.30
2024-02-23T01:28:13.094Z,0.60
2024-02-23T01:31:58.197Z,0.60
2024-02-23T01:35:41.657Z,0.40
2024-02-23T01:39:44.403Z,0.50
2024-02-23T01:43:38.408Z,0.68
2024-02-23T01:47:26.803Z,0.80
2024-02-23T01:51:18.464Z,0.68
2024-02-23T01:55:10.893Z,0.53
2024-02-23T01:59:01.457Z,0.47
2024-02-23T02:02:44.791Z,0.50
2024-02-23T02:06:27.074Z,0.60
2024-02-23T02:10:11.062Z,0.60
2024-02-23T02:13:55.819Z,0.50
2024-02-23T02:17:41.614Z,0.57
2024-02-23T02:21:26.506Z,0.40
2024-02-23T02:25:09.096Z,0.50
2024-02-23T02:28:53.852Z,0.40
2024-02-23T02:32:40.945Z,0.40
2024-02-23T02:36:23.049Z,0.40
2024-02-23T02:40:06.020Z,0.30
2024-02-23T02:43:48.143Z,0.20
2024-02-23T02:47:33.275Z,0.30
2024-02-23T02:51:17.868Z,0.40
2024-02-23T02:54:59.973Z,0.37
2024-02-23T02:58:42.084Z,0.30
2024-02-23T03:02:24.250Z,0.50
2024-02-23T03:06:08.134Z,0.70
2024-02-23T03:09:53.107Z,0.43
2024-02-23T03:13:35.235Z,0.50
2024-02-23T03:17:18.633Z,0.60
2024-02-23T03:21:04.455Z,0.40
2024-02-23T03:24:47.790Z,0.40
2024-02-23T03:28:30.297Z,0.30
2024-02-23T03:32:16.683Z,0.60
2024-02-23T03:36:03.940Z,0.40
2024-02-23T03:39:51.710Z,0.40
2024-02-23T03:43:43.404Z,0.35
2024-02-23T03:47:25.693Z,0.33
2024-02-23T03:51:15.209Z,0.40
2024-02-23T03:55:02.175Z,0.40
2024-02-23T03:58:44.760Z,0.60
2024-02-23T04:02:29.511Z,0.85
2024-02-23T04:06:15.508Z,0.30
2024-02-23T04:09:57.716Z,0.53
2024-02-23T04:13:39.830Z,0.50
2024-02-23T04:17:22.088Z,0.60
2024-02-23T04:21:04.552Z,0.40
2024-02-23T04:24:50.267Z,0.30
2024-02-23T04:28:35.970Z,0.60
2024-02-23T04:32:18.174Z,0.50
2024-02-23T04:36:00.512Z,0.60
2024-02-23T04:39:45.387Z,0.90
2024-02-23T04:43:27.777Z,0.68
2024-02-23T04:47:10.309Z,0.60
2024-02-23T04:50:53.105Z,0.60
2024-02-23T04:54:36.155Z,0.73
2024-02-23T04:58:18.439Z,0.70
2024-02-23T05:02:00.773Z,0.40
2024-02-23T05:05:43.179Z,0.63
2024-02-23T05:09:25.380Z,0.43
2024-02-23T05:13:07.461Z,0.43
2024-02-23T05:16:49.515Z,0.60
2024-02-23T05:20:31.686Z,1.10
2024-02-23T05:24:13.918Z,0.40
2024-02-23T05:27:55.945Z,0.52
2024-02-23T05:31:52.424Z,0.68
2024-02-23T05:35:34.621Z,0.50
2024-02-23T05:39:16.929Z,0.50
2024-02-23T05:42:59.473Z,0.43
2024-02-23T05:46:43.940Z,0.30
2024-02-23T05:50:30.790Z,0.50
2024-02-23T05:54:13.073Z,0.57
2024-02-23T05:57:55.214Z,0.68
2024-02-23T06:01:39.867Z,0.67
2024-02-23T06:05:21.943Z,0.40
2024-02-23T06:09:04.905Z,0.60
2024-02-23T06:12:46.986Z,0.60
2024-02-23T06:16:29.615Z,0.60
2024-02-23T06:20:11.995Z,0.65
2024-02-23T06:23:54.565Z,0.30
2024-02-23T06:27:37.675Z,0.60
2024-02-23T06:31:19.776Z,0.40
2024-02-23T06:35:02.157Z,0.50
2024-02-23T06:38:45.659Z,0.50
2024-02-23T06:42:27.864Z,0.50
2024-02-23T06:46:11.062Z,0.30
2024-02-23T06:49:53.149Z,0.50
2024-02-23T06:53:35.401Z,0.30
2024-02-23T06:57:19.951Z,0.85
2024-02-23T07:01:07.221Z,0.70
2024-02-23T07:04:49.330Z,1.00
2024-02-23T07:08:33.481Z,0.40
2024-02-23T07:12:15.916Z,0.60
2024-02-23T07:15:59.644Z,0.40
2024-02-23T07:19:41.823Z,0.45
2024-02-23T07:23:24.258Z,0.77
2024-02-23T07:27:07.497Z,0.55
2024-02-23T07:30:49.488Z,0.70
2024-02-23T07:34:32.888Z,1.10
2024-02-23T07:38:15.487Z,0.60
2024-02-23T07:41:57.673Z,0.60
2024-02-23T07:45:48.470Z,0.50
2024-02-23T07:49:31.778Z,0.73
2024-02-23T07:53:13.942Z,0.70
2024-02-23T08:01:43.925Z,1.00
2024-02-23T08:05:26.588Z,0.98
2024-02-23T09:35:34.424Z,0.30
2024-02-23T11:15:47.718Z,0.55
2024-02-23T11:19:59.874Z,0.50
2024-02-23T11:28:22.867Z,0.55
2024-02-23T11:41:33.629Z,0.70
2024-02-23T11:45:16.603Z,0.80
2024-02-23T11:49:19.488Z,0.57
2024-02-23T11:53:04.435Z,0.60
2024-02-23T11:57:17.985Z,0.50
2024-02-23T12:01:03.282Z,0.60
2024-02-23T12:05:10.214Z,0.60
2024-02-23T12:08:52.830Z,0.50
2024-02-23T12:13:09.759Z,0.63
2024-02-23T12:37:05.003Z,0.60
2024-02-23T12:41:15.889Z,0.40
2024-02-23T12:44:58.075Z,0.30
2024-02-23T12:52:42.970Z,0.60
2024-02-23T12:57:10.985Z,0.65
2024-02-23T13:10:23.611Z,0.30
2024-02-23T13:14:11.531Z,0.35
2024-02-23T13:22:11.185Z,0.33
2024-02-23T13:26:09.565Z,0.40
2024-02-23T13:29:52.626Z,0.30
2024-02-23T13:34:10.930Z,0.40
2024-02-23T13:37:53.615Z,0.43
2024-02-23T14:11:21.061Z,0.68
2024-02-23T14:15:05.432Z,0.50
2024-02-23T14:19:38.915Z,0.30
2024-02-23T14:23:39.642Z,0.55
2024-02-23T14:27:22.162Z,0.38
2024-02-23T14:31:35.230Z,0.57
2024-02-23T15:04:25.618Z,0.90
2024-02-23T15:17:56.404Z,0.45
2024-02-23T15:22:28.182Z,0.50
2024-02-23T15:27:01.377Z,0.47
2024-02-23T15:45:10.779Z,0.57
2024-02-23T15:57:21.102Z,0.45
2024-02-23T16:14:16.628Z,0.40
2024-02-23T16:22:17.994Z,0.52
2024-02-23T16:30:04.592Z,0.32
2024-02-23T16:34:18.058Z,1.40
2024-02-23T16:38:01.244Z,2.03
2024-02-23T16:45:48.466Z,0.50
2024-02-23T16:50:05.470Z,0.43
2024-02-23T16:53:48.019Z,0.30
2024-02-23T17:01:36.561Z,0.40
2024-02-23T17:10:24.470Z,0.47
2024-02-23T17:14:07.225Z,0.30
2024-02-23T17:22:39.408Z,0.50
2024-02-23T17:26:22.378Z,0.50
2024-02-23T17:30:39.038Z,1.08
2024-02-23T17:34:21.697Z,2.58
2024-02-23T17:43:02.259Z,0.82
2024-02-23T17:46:49.165Z,0.70
2024-02-23T17:50:32.853Z,0.63
2024-02-23T17:54:15.169Z,0.70
2024-02-23T17:58:02.676Z,2.40
2024-02-23T18:01:52.780Z,6.90
2024-02-23T18:05:34.774Z,7.70
2024-02-23T18:09:19.957Z,3.40
2024-02-23T18:13:03.179Z,2.40
2024-02-23T18:16:49.186Z,2.00
2024-02-23T18:20:34.304Z,1.20
2024-02-23T18:24:16.840Z,0.73
2024-02-23T18:27:59.077Z,1.10
2024-02-23T18:31:44.174Z,0.70
2024-02-23T18:35:26.467Z,0.77
2024-02-23T18:39:10.735Z,1.00
2024-02-23T18:42:52.863Z,2.23
2024-02-23T18:46:38.014Z,1.95
2024-02-23T18:50:20.335Z,1.52
2024-02-23T18:54:02.652Z,1.70
2024-02-23T18:57:53.251Z,1.05
2024-02-23T19:01:40.512Z,1.05
2024-02-23T19:06:07.715Z,6.10
2024-02-23T19:09:59.166Z,10.00
2024-02-23T19:13:41.706Z,6.97
2024-02-23T19:17:24.311Z,2.80
2024-02-23T19:21:12.467Z,1.90
2024-02-23T19:24:59.994Z,1.65
2024-02-23T19:28:43.763Z,1.77
2024-02-23T19:32:31.636Z,1.57
2024-02-23T19:36:16.251Z,1.85
2024-02-23T19:40:00.920Z,1.60
2024-02-23T19:43:42.987Z,1.48
2024-02-23T19:47:25.208Z,1.30
2024-02-23T19:51:12.463Z,1.10
2024-02-23T19:54:54.703Z,1.30
2024-02-23T19:58:39.434Z,1.60
2024-02-23T20:02:21.591Z,1.60
2024-02-23T20:06:04.002Z,1.77
2024-02-23T20:09:46.747Z,1.70
2024-02-23T20:13:30.846Z,1.88
2024-02-23T20:17:15.746Z,1.65
2024-02-23T20:20:58.244Z,2.05
2024-02-23T20:24:43.273Z,3.60
2024-02-23T20:28:25.790Z,3.13
2024-02-23T20:32:16.011Z,1.70
2024-02-23T20:36:06.343Z,1.87
2024-02-23T20:39:48.753Z,2.28
2024-02-23T20:43:30.865Z,1.92
2024-02-23T20:47:13.128Z,1.90
2024-02-23T20:50:55.381Z,1.92
2024-02-23T20:54:37.605Z,2.22
2024-02-23T20:58:20.913Z,1.90
2024-02-23T21:02:03.248Z,1.67
2024-02-23T21:05:45.546Z,2.00
2024-02-23T21:09:27.745Z,2.13
2024-02-23T21:13:13.067Z,1.80
2024-02-23T21:16:58.318Z,2.17
2024-02-23T21:20:55.280Z,2.30
2024-02-23T21:24:38.771Z,2.10
2024-02-23T21:28:26.827Z,1.90
2024-02-23T21:32:09.341Z,2.25
2024-02-23T21:35:51.816Z,2.10
2024-02-23T21:39:37.475Z,2.43
2024-02-23T21:43:19.687Z,2.33
2024-02-23T21:47:02.087Z,1.88
2024-02-23T21:50:44.441Z,2.27
2024-02-23T21:54:26.640Z,2.33
2024-02-23T21:58:08.733Z,3.03
2024-02-23T22:01:52.803Z,2.97
2024-02-23T22:05:35.142Z,2.65
2024-02-23T22:09:17.501Z,3.35
2024-02-23T22:13:00.131Z,3.72
2024-02-23T22:16:44.809Z,3.00
2024-02-23T22:20:29.463Z,3.42
2024-02-23T22:24:11.663Z,5.60
2024-02-23T22:27:53.821Z,5.00
2024-02-23T22:31:35.906Z,3.30
2024-02-23T22:35:18.192Z,2.97
2024-02-23T22:39:00.298Z,3.10
2024-02-23T22:42:42.496Z,3.20
2024-02-23T22:46:27.625Z,3.80
2024-02-23T22:50:10.147Z,3.80
2024-02-23T22:53:52.335Z,3.27
2024-02-23T22:57:34.471Z,4.22
2024-02-23T23:01:16.643Z,3.50
2024-02-23T23:04:58.790Z,3.87
2024-02-23T23:08:41.001Z,3.08
2024-02-23T23:12:23.175Z,3.33
2024-02-23T23:16:05.545Z,3.67
2024-02-23T23:19:50.752Z,3.30
2024-02-23T23:23:32.741Z,2.80
2024-02-23T23:27:14.767Z,3.35
2024-02-23T23:30:56.789Z,3.50
2024-02-23T23:34:39.587Z,3.17
2024-02-23T23:38:22.171Z,2.28
2024-02-23T23:42:04.584Z,2.80
2024-02-23T23:45:46.607Z,2.47
2024-02-23T23:49:28.625Z,2.75
2024-02-23T23:53:10.872Z,2.90
2024-02-23T23:56:52.927Z,2.67
